createdAt,value
2022-12-09T00:04:23.531Z,47.31
2022-12-09T00:09:25.507Z,47.08
2022-12-09T00:14:27.556Z,45.54
2022-12-09T00:19:29.632Z,44.91
2022-12-09T00:24:32.554Z,43.90
2022-12-09T00:29:34.551Z,44.33
2022-12-09T00:34:36.412Z,44.74
2022-12-09T00:39:39.164Z,43.28
2022-12-09T00:44:41.076Z,42.84
2022-12-09T00:49:42.926Z,42.23
2022-12-09T00:54:44.958Z,41.98
2022-12-09T00:59:47.174Z,40.78
2022-12-09T01:04:52.195Z,40.97
2022-12-09T01:09:54.171Z,40.98
2022-12-09T01:14:56.124Z,40.76
2022-12-09T01:19:58.246Z,42.48
2022-12-09T01:25:00.208Z,44.06
2022-12-09T01:30:02.185Z,43.34
2022-12-09T01:35:05.153Z,44.86
2022-12-09T01:40:12.496Z,43.47
2022-12-09T01:45:20.843Z,43.95
2022-12-09T01:50:26.095Z,44.75
2022-12-09T01:55:29.531Z,44.29
2022-12-09T02:00:31.934Z,42.54
2022-12-09T02:05:35.004Z,42.18
2022-12-09T02:10:44.939Z,42.42
2022-12-09T02:15:59.000Z,41.75
2022-12-09T02:21:26.639Z,41.41
2022-12-09T02:26:46.848Z,40.42
2022-12-09T02:32:21.625Z,41.62
2022-12-09T02:37:31.926Z,41.16
2022-12-09T02:42:36.692Z,42.07
2022-12-09T02:47:46.686Z,43.66
2022-12-09T02:52:52.780Z,43.47
2022-12-09T02:57:59.986Z,43.06
2022-12-09T03:03:07.002Z,43.43
2022-12-09T03:08:31.628Z,45.12
2022-12-09T03:13:46.892Z,46.90
2022-12-09T03:18:54.269Z,47.07
2022-12-09T03:24:00.456Z,47.74
2022-12-09T03:29:07.163Z,46.25
2022-12-09T03:34:14.449Z,45.89
2022-12-09T03:39:19.128Z,45.41
2022-12-09T03:44:32.426Z,45.57
2022-12-09T03:49:34.952Z,47.69
2022-12-09T03:54:46.541Z,46.57
2022-12-09T03:59:55.979Z,47.24
2022-12-09T04:04:58.048Z,49.41
2022-12-09T04:09:59.966Z,48.61
2022-12-09T04:15:02.088Z,48.92
2022-12-09T04:20:04.938Z,47.49
2022-12-09T04:25:07.603Z,46.31
2022-12-09T04:30:10.425Z,44.61
2022-12-09T04:35:12.647Z,43.51
2022-12-09T04:40:21.315Z,44.22
2022-12-09T04:45:25.736Z,43.16
2022-12-09T04:50:27.977Z,42.13
2022-12-09T04:55:30.222Z,40.59
2022-12-09T05:00:32.724Z,40.46
2022-12-09T05:05:34.882Z,39.96
2022-12-09T05:10:36.920Z,39.78
2022-12-09T05:15:39.094Z,39.30
2022-12-09T05:20:41.409Z,39.85
2022-12-09T05:25:43.360Z,42.81
2022-12-09T05:30:45.353Z,40.71
2022-12-09T05:35:52.712Z,39.63
2022-12-09T05:40:55.323Z,39.58
2022-12-09T05:45:57.733Z,39.39
2022-12-09T05:51:02.948Z,42.98
2022-12-09T05:56:05.785Z,44.94
2022-12-09T06:01:09.479Z,45.41
2022-12-09T06:06:12.908Z,45.97
2022-12-09T06:11:21.020Z,47.64
2022-12-09T06:16:24.235Z,48.51
2022-12-09T06:21:26.721Z,46.47
2022-12-09T06:26:30.356Z,49.35
2022-12-09T06:31:33.344Z,47.46
2022-12-09T06:36:35.709Z,48.04
2022-12-09T06:41:40.107Z,48.20
2022-12-09T06:46:42.326Z,48.30
2022-12-09T06:51:44.936Z,50.01
2022-12-09T06:56:47.769Z,47.97
2022-12-09T07:01:50.168Z,47.98
2022-12-09T07:06:52.748Z,49.32
2022-12-09T07:11:54.757Z,48.32
2022-12-09T07:16:56.792Z,47.36
2022-12-09T07:21:59.861Z,46.93
2022-12-09T07:27:07.528Z,48.53
2022-12-09T07:32:14.045Z,46.68
2022-12-09T07:37:16.358Z,45.39
2022-12-09T07:42:18.642Z,44.06
2022-12-09T07:47:28.100Z,44.20
2022-12-09T07:52:30.711Z,43.40
2022-12-09T07:57:34.157Z,42.52
2022-12-09T08:02:36.647Z,43.53
2022-12-09T08:07:43.979Z,42.48
2022-12-09T08:12:46.768Z,42.35
2022-12-09T08:17:49.465Z,43.06
2022-12-09T08:22:51.808Z,42.16
2022-12-09T08:27:54.265Z,42.51
2022-12-09T08:32:56.430Z,41.34
2022-12-09T08:37:58.890Z,39.23
2022-12-09T08:43:01.224Z,37.90
2022-12-09T08:48:03.783Z,36.18
2022-12-09T08:53:06.044Z,35.24
2022-12-09T08:58:08.523Z,33.48
2022-12-09T09:03:10.770Z,32.93
2022-12-09T09:08:13.394Z,31.31
2022-12-09T09:13:15.785Z,30.45
2022-12-09T09:18:18.298Z,29.57
2022-12-09T09:23:20.373Z,29.73
2022-12-09T09:28:26.065Z,28.76
2022-12-09T09:33:33.162Z,28.68
2022-12-09T09:38:35.495Z,28.42
2022-12-09T09:43:38.453Z,27.12
2022-12-09T09:48:40.678Z,26.97
2022-12-09T09:53:43.056Z,27.57
2022-12-09T09:58:57.271Z,27.91
2022-12-09T10:04:14.043Z,27.34
2022-12-09T10:09:31.463Z,25.83
2022-12-09T10:14:49.496Z,25.16
2022-12-09T10:19:57.561Z,25.85
2022-12-09T10:25:08.163Z,24.46
2022-12-09T10:30:16.721Z,22.74
2022-12-09T10:35:20.986Z,22.09
2022-12-09T10:40:48.000Z,19.75
2022-12-09T10:51:19.645Z,23.36
2022-12-09T10:56:31.684Z,21.76
2022-12-09T11:02:11.023Z,20.79
2022-12-09T11:07:13.588Z,18.48
2022-12-09T11:12:36.182Z,18.22
2022-12-09T11:17:56.892Z,19.08
2022-12-09T11:23:17.907Z,18.64
2022-12-09T11:28:27.680Z,21.86
2022-12-09T11:33:32.485Z,22.34
2022-12-09T11:38:40.874Z,23.41
2022-12-09T11:43:45.982Z,21.76
2022-12-09T11:48:55.826Z,21.13
2022-12-09T11:54:24.236Z,23.42
2022-12-09T11:59:44.019Z,22.01
2022-12-09T12:04:55.812Z,22.42
2022-12-09T12:09:59.027Z,21.91
2022-12-09T12:15:10.751Z,22.81
2022-12-09T12:20:14.076Z,21.99
2022-12-09T12:25:23.620Z,19.14
2022-12-09T12:30:34.232Z,18.93
2022-12-09T12:35:54.802Z,20.52
2022-12-09T12:41:33.173Z,19.91
2022-12-09T12:46:47.659Z,24.01
2022-12-09T12:52:53.821Z,24.80
2022-12-09T12:58:28.849Z,27.32
2022-12-09T13:03:43.759Z,27.96
2022-12-09T13:09:02.677Z,28.71
2022-12-09T13:14:13.604Z,28.63
2022-12-09T13:19:22.000Z,29.10
2022-12-09T13:24:46.248Z,29.31
2022-12-09T13:30:02.008Z,30.48
2022-12-09T13:35:21.488Z,31.46
2022-12-09T13:40:32.572Z,32.13
2022-12-09T13:45:34.545Z,30.93
2022-12-09T13:50:51.802Z,31.76
2022-12-09T13:56:07.172Z,34.50
2022-12-09T14:01:12.116Z,33.66
2022-12-09T14:06:23.443Z,38.80
2022-12-09T14:11:37.410Z,37.84
2022-12-09T14:16:39.455Z,34.87
2022-12-09T14:21:41.501Z,34.74
2022-12-09T14:27:08.018Z,35.69
2022-12-09T14:32:21.814Z,34.96
2022-12-09T14:37:32.673Z,36.49
2022-12-09T14:42:46.287Z,43.42
2022-12-09T14:47:48.466Z,38.45
2022-12-09T14:52:57.748Z,38.91
2022-12-09T14:58:01.683Z,38.80
2022-12-09T15:03:33.185Z,50.77
2022-12-09T15:08:40.264Z,53.26
2022-12-09T15:13:45.900Z,48.63
2022-12-09T15:18:48.586Z,49.13
2022-12-09T15:23:50.562Z,43.29
2022-12-09T15:28:53.900Z,42.08
2022-12-09T15:34:00.935Z,40.93
2022-12-09T15:39:07.414Z,43.80
2022-12-09T15:44:16.444Z,49.37
2022-12-09T15:49:23.617Z,51.21
2022-12-09T15:54:31.668Z,50.92
2022-12-09T15:59:38.634Z,51.53
2022-12-09T16:04:46.940Z,50.32
2022-12-09T16:10:15.796Z,46.69
2022-12-09T16:15:57.011Z,45.21
2022-12-09T16:21:07.469Z,47.84
2022-12-09T16:26:29.184Z,47.63
2022-12-09T16:31:31.784Z,46.72
2022-12-09T16:36:33.681Z,48.71
2022-12-09T16:42:02.931Z,47.95
2022-12-09T16:47:10.961Z,49.88
2022-12-09T16:52:20.665Z,48.15
2022-12-09T16:57:22.621Z,49.50
2022-12-09T17:02:33.255Z,49.31
2022-12-09T17:07:36.408Z,49.38
2022-12-09T17:12:38.532Z,47.02
2022-12-09T17:17:43.880Z,45.86
2022-12-09T17:22:50.097Z,44.52
2022-12-09T17:27:52.029Z,45.28
2022-12-09T17:32:53.919Z,44.79
2022-12-09T17:37:55.792Z,42.37
2022-12-09T17:42:57.686Z,41.80
2022-12-09T17:47:59.613Z,41.89
2022-12-09T17:53:01.683Z,41.97
2022-12-09T17:58:03.595Z,42.10
2022-12-09T18:03:05.725Z,43.95
2022-12-09T18:08:08.018Z,45.94
2022-12-09T18:13:10.032Z,45.61
2022-12-09T18:18:12.035Z,46.05
2022-12-09T18:23:14.024Z,44.88
2022-12-09T18:28:15.896Z,47.29
2022-12-09T18:33:17.724Z,43.42
2022-12-09T18:38:19.636Z,42.98
2022-12-09T18:43:21.550Z,42.72
2022-12-09T18:48:23.424Z,44.00
2022-12-09T18:53:25.727Z,44.88
2022-12-09T18:58:57.566Z,43.19
2022-12-09T19:03:50.053Z,42.74
2022-12-09T19:08:55.440Z,42.97
2022-12-09T19:13:57.899Z,43.98
2022-12-09T19:19:05.432Z,45.32
2022-12-09T19:24:14.855Z,43.99
2022-12-09T19:29:17.752Z,43.26
2022-12-09T19:34:20.960Z,42.16
2022-12-09T19:39:27.020Z,43.97
2022-12-09T19:44:59.478Z,48.24
2022-12-09T19:49:51.231Z,46.30
2022-12-09T19:54:53.174Z,43.94
2022-12-09T19:59:55.034Z,43.97
2022-12-09T20:04:56.906Z,45.30
2022-12-09T20:09:58.973Z,45.64
2022-12-09T20:15:01.087Z,43.06
2022-12-09T20:20:03.013Z,42.01
2022-12-09T20:25:05.419Z,40.20
2022-12-09T20:30:08.554Z,40.16
2022-12-09T20:35:10.812Z,39.50
2022-12-09T20:40:12.781Z,38.45
2022-12-09T20:45:14.606Z,37.08
2022-12-09T20:50:17.549Z,36.40
2022-12-09T20:55:20.533Z,35.68
2022-12-09T21:00:22.856Z,36.79
2022-12-09T21:05:24.698Z,37.33
2022-12-09T21:10:26.837Z,36.87
2022-12-09T21:15:29.244Z,35.42
2022-12-09T21:20:31.103Z,34.60
2022-12-09T21:25:33.058Z,36.13
2022-12-09T21:30:35.026Z,38.19
2022-12-09T21:35:37.693Z,40.33
2022-12-09T21:40:40.563Z,39.58
2022-12-09T21:45:42.447Z,40.80
2022-12-09T21:50:45.111Z,40.04
2022-12-09T21:55:46.958Z,42.32
2022-12-09T22:00:48.939Z,43.49
2022-12-09T22:05:56.644Z,44.38
2022-12-09T22:11:01.347Z,46.50
2022-12-09T22:16:11.471Z,47.09
2022-12-09T22:21:24.756Z,47.12
2022-12-09T22:26:27.448Z,48.66
2022-12-09T22:31:32.459Z,46.33
2022-12-09T22:36:37.128Z,43.96
2022-12-09T22:41:39.286Z,45.29
2022-12-09T22:46:42.169Z,45.03
2022-12-09T22:51:45.156Z,46.64
2022-12-09T22:56:47.251Z,47.32
2022-12-09T23:01:51.075Z,46.21
2022-12-09T23:06:52.945Z,45.73
2022-12-09T23:11:55.124Z,45.77
2022-12-09T23:16:58.424Z,45.40
2022-12-09T23:22:01.616Z,45.81
2022-12-09T23:27:05.606Z,44.83
2022-12-09T23:32:07.473Z,44.56
2022-12-09T23:37:09.289Z,46.09
2022-12-09T23:42:11.225Z,45.55
2022-12-09T23:47:13.110Z,48.14
2022-12-09T23:52:14.980Z,47.91
2022-12-09T23:57:16.824Z,48.67
